Lida, Belarus
Current Conditions -  °F | °C
As of 12:50 AM on Saturday 25 Oct 2014 (Local Time) from EYVI Reporting Station
Clear Clear  
Wind Chill: 13°   Ceiling: Unl
Heat Index: 25°   Visibility: 6mi
Dew Point: 16°   Wind: 14mph
Humidity: 69%   Direction: 160°SSE
Pressure: 30.5"   Gusts: NA
Location:  53.89°N, 25.28°E
Report Text: EYVI 242250Z 16012KT CAVOK M04/M09 Q1033 NOSIG
Loading
Personal Weather Stations






























Interactive Weather Map
Tropical Storm Tracking
New forecast layout! Learn more

10-Day Weather Forecast

Advertisements
Track Severe Weather on mobile